createdAt,value
2022-10-17T00:00:31.640Z,100.00
2022-10-17T00:02:35.155Z,100.00
2022-10-17T00:04:38.329Z,100.00
2022-10-17T00:06:41.780Z,100.00
2022-10-17T00:08:45.879Z,100.00
2022-10-17T00:10:59.745Z,100.00
2022-10-17T00:13:02.945Z,100.00
2022-10-17T00:15:07.963Z,100.00
2022-10-17T00:17:11.165Z,100.00
2022-10-17T00:19:14.343Z,100.00
2022-10-17T00:21:18.312Z,100.00
2022-10-17T00:23:21.435Z,100.00
2022-10-17T00:25:24.729Z,100.00
2022-10-17T00:27:29.743Z,100.00
2022-10-17T00:29:33.049Z,100.00
2022-10-17T00:31:36.836Z,100.00
2022-10-17T00:33:43.193Z,100.00
2022-10-17T00:35:46.312Z,100.00
2022-10-17T00:37:49.861Z,100.00
2022-10-17T00:39:53.840Z,100.00
2022-10-17T00:41:57.027Z,100.00
2022-10-17T00:44:03.588Z,100.00
2022-10-17T00:46:06.746Z,100.00
2022-10-17T00:48:11.611Z,100.00
2022-10-17T00:50:14.972Z,100.00
2022-10-17T00:52:20.744Z,100.00
2022-10-17T00:54:27.142Z,100.00
2022-10-17T00:56:31.219Z,100.00
2022-10-17T00:58:35.465Z,100.00
2022-10-17T01:00:40.080Z,100.00
2022-10-17T01:02:43.421Z,100.00
2022-10-17T01:04:49.027Z,100.00
2022-10-17T01:06:53.032Z,100.00
2022-10-17T01:08:56.644Z,100.00
2022-10-17T01:11:07.140Z,100.00
2022-10-17T01:13:15.464Z,100.00
2022-10-17T01:15:25.280Z,100.00
2022-10-17T01:17:36.640Z,100.00
2022-10-17T01:19:59.175Z,100.00
2022-10-17T01:22:06.289Z,100.00
2022-10-17T01:24:43.345Z,100.00
2022-10-17T01:26:59.183Z,100.00
2022-10-17T01:29:14.188Z,100.00
2022-10-17T01:31:21.532Z,100.00
2022-10-17T01:33:32.849Z,100.00
2022-10-17T01:35:41.066Z,100.00
2022-10-17T01:37:49.006Z,100.00
2022-10-17T01:39:54.901Z,100.00
2022-10-17T01:42:01.698Z,100.00
2022-10-17T01:44:09.102Z,100.00
2022-10-17T01:46:14.793Z,100.00
2022-10-17T01:48:22.962Z,100.00
2022-10-17T01:50:29.543Z,100.00
2022-10-17T01:52:35.997Z,100.00
2022-10-17T01:54:42.026Z,100.00
2022-10-17T01:56:45.519Z,100.00
2022-10-17T01:58:52.115Z,100.00
2022-10-17T02:00:57.169Z,100.00
2022-10-17T02:03:02.401Z,100.00
2022-10-17T02:05:07.717Z,100.00
2022-10-17T02:07:12.305Z,100.00
2022-10-17T02:09:21.592Z,100.00
2022-10-17T02:11:26.090Z,100.00
2022-10-17T02:13:39.157Z,100.00
2022-10-17T02:15:54.383Z,100.00
2022-10-17T02:18:05.588Z,100.00
2022-10-17T02:20:18.880Z,100.00
2022-10-17T02:22:30.994Z,100.00
2022-10-17T02:24:39.079Z,100.00
2022-10-17T02:26:45.781Z,100.00
2022-10-17T02:28:53.144Z,100.00
2022-10-17T02:31:00.554Z,100.00
2022-10-17T02:33:07.915Z,100.00
2022-10-17T02:35:15.480Z,100.00
2022-10-17T02:37:21.472Z,100.00
2022-10-17T02:39:26.484Z,100.00
2022-10-17T02:41:31.317Z,100.00
2022-10-17T02:43:35.654Z,100.00
2022-10-17T02:45:39.440Z,100.00
2022-10-17T02:47:50.844Z,100.00
2022-10-17T02:49:56.124Z,100.00
2022-10-17T02:52:03.925Z,100.00
2022-10-17T02:54:11.172Z,100.00
2022-10-17T02:56:18.893Z,100.00
2022-10-17T02:58:25.448Z,100.00
2022-10-17T03:00:29.192Z,100.00
2022-10-17T03:02:40.261Z,99.78
2022-10-17T03:04:46.030Z,100.00
2022-10-17T03:06:49.706Z,100.00
2022-10-17T03:08:55.905Z,100.00
2022-10-17T03:10:59.042Z,100.00
2022-10-17T03:13:03.708Z,100.00
2022-10-17T03:15:09.669Z,100.00
2022-10-17T03:17:12.933Z,100.00
2022-10-17T03:19:16.092Z,100.00
2022-10-17T03:21:20.090Z,100.00
2022-10-17T03:23:23.168Z,100.00
2022-10-17T03:25:27.762Z,100.00
2022-10-17T03:27:31.337Z,100.00
2022-10-17T03:29:34.774Z,100.00
2022-10-17T03:31:39.674Z,100.00
2022-10-17T03:33:44.074Z,100.00
2022-10-17T03:35:47.227Z,100.00
2022-10-17T03:37:50.436Z,100.00
2022-10-17T03:39:55.657Z,100.00
2022-10-17T03:42:00.171Z,100.00
2022-10-17T03:44:03.396Z,100.00
2022-10-17T03:46:07.961Z,100.00
2022-10-17T03:48:12.276Z,100.00
2022-10-17T03:50:16.049Z,100.00
2022-10-17T03:52:20.071Z,100.00
2022-10-17T03:54:23.975Z,100.00
2022-10-17T03:56:27.790Z,100.00
2022-10-17T03:58:40.236Z,100.00
2022-10-17T04:00:43.345Z,100.00
2022-10-17T04:02:46.427Z,100.00
2022-10-17T04:04:54.555Z,100.00
2022-10-17T04:06:58.009Z,100.00
2022-10-17T04:09:01.629Z,100.00
2022-10-17T04:11:16.849Z,100.00
2022-10-17T04:13:19.904Z,100.00
2022-10-17T04:15:24.414Z,100.00
2022-10-17T04:17:35.898Z,100.00
2022-10-17T04:19:41.773Z,100.00
2022-10-17T04:21:45.284Z,100.00
2022-10-17T04:23:49.745Z,100.00
2022-10-17T04:26:07.042Z,100.00
2022-10-17T04:28:10.410Z,100.00
2022-10-17T04:30:14.533Z,100.00
2022-10-17T04:32:20.039Z,100.00
2022-10-17T04:34:32.426Z,100.00
2022-10-17T04:36:35.657Z,100.00
2022-10-17T04:38:39.753Z,100.00
2022-10-17T04:40:43.268Z,100.00
2022-10-17T04:42:46.863Z,100.00
2022-10-17T04:44:54.609Z,99.75
2022-10-17T04:47:00.145Z,100.00
2022-10-17T04:49:06.027Z,100.00
2022-10-17T04:51:12.183Z,100.00
2022-10-17T04:53:25.453Z,100.00
2022-10-17T04:55:28.669Z,100.00
2022-10-17T04:57:31.924Z,100.00
2022-10-17T04:59:42.349Z,100.00
2022-10-17T05:01:54.904Z,100.00
2022-10-17T05:03:58.206Z,100.00
2022-10-17T05:06:06.818Z,99.65
2022-10-17T05:08:11.352Z,99.78
2022-10-17T05:10:15.344Z,100.00
2022-10-17T05:12:22.707Z,99.79
2022-10-17T05:14:25.874Z,99.76
2022-10-17T05:16:30.267Z,100.00
2022-10-17T05:18:34.484Z,100.00
2022-10-17T05:20:38.346Z,100.00
2022-10-17T05:22:44.393Z,100.00
2022-10-17T05:24:48.162Z,100.00
2022-10-17T05:26:52.136Z,99.60
2022-10-17T05:29:00.740Z,99.09
2022-10-17T05:31:04.882Z,98.75
2022-10-17T05:33:08.270Z,97.92
2022-10-17T05:35:11.779Z,97.64
2022-10-17T05:37:15.376Z,99.24
2022-10-17T05:39:24.371Z,100.00
2022-10-17T05:41:28.390Z,99.91
2022-10-17T05:43:32.111Z,99.86
2022-10-17T05:45:35.821Z,100.00
2022-10-17T05:47:39.118Z,100.00
2022-10-17T05:49:48.549Z,100.00
2022-10-17T05:51:54.317Z,100.00
2022-10-17T05:53:57.490Z,100.00
2022-10-17T05:56:08.079Z,100.00
2022-10-17T05:58:21.763Z,100.00
2022-10-17T06:00:26.741Z,100.00
2022-10-17T06:02:34.296Z,100.00
2022-10-17T06:04:37.975Z,100.00
2022-10-17T06:06:41.708Z,100.00
2022-10-17T06:08:46.235Z,100.00
2022-10-17T06:10:53.462Z,100.00
2022-10-17T06:12:57.948Z,100.00
2022-10-17T06:15:02.500Z,100.00
2022-10-17T06:17:06.140Z,100.00
2022-10-17T06:19:09.171Z,99.34
2022-10-17T06:21:13.122Z,99.40
2022-10-17T06:23:21.008Z,98.50
2022-10-17T06:25:32.135Z,98.16
2022-10-17T06:27:35.307Z,99.07
2022-10-17T06:29:39.828Z,98.57
2022-10-17T06:31:43.037Z,99.43
2022-10-17T06:33:46.835Z,100.00
2022-10-17T06:35:52.792Z,100.00
2022-10-17T06:37:56.236Z,98.81
2022-10-17T06:40:00.140Z,99.82
2022-10-17T06:42:04.202Z,97.55
2022-10-17T06:44:34.074Z,98.29
2022-10-17T06:46:56.573Z,98.03
2022-10-17T06:48:59.646Z,98.57
2022-10-17T06:51:12.703Z,99.05
2022-10-17T06:53:25.149Z,98.60
2022-10-17T06:55:28.236Z,98.34
2022-10-17T06:57:51.240Z,98.15
2022-10-17T07:00:17.728Z,99.20
2022-10-17T07:02:27.886Z,96.62
2022-10-17T07:04:33.650Z,96.71
2022-10-17T07:06:36.637Z,96.59
2022-10-17T07:08:53.006Z,96.25
2022-10-17T07:10:56.818Z,96.08
2022-10-17T07:12:59.797Z,96.74
2022-10-17T07:15:04.142Z,95.85
2022-10-17T07:17:07.258Z,96.06
2022-10-17T07:19:11.780Z,94.62
2022-10-17T07:21:16.101Z,93.49
2022-10-17T07:23:19.671Z,93.98
2022-10-17T07:25:22.986Z,93.12
2022-10-17T07:27:31.139Z,94.14
2022-10-17T07:29:34.559Z,93.71
2022-10-17T07:31:45.548Z,93.37
2022-10-17T07:33:49.093Z,93.90
2022-10-17T07:35:53.724Z,93.27
2022-10-17T07:37:57.071Z,92.42
2022-10-17T07:40:00.305Z,92.15
2022-10-17T07:42:03.470Z,91.04
2022-10-17T07:44:07.461Z,91.52
2022-10-17T07:46:16.020Z,93.37
2022-10-17T07:48:20.354Z,92.76
2022-10-17T07:50:23.766Z,93.07
2022-10-17T07:52:28.650Z,92.18
2022-10-17T07:54:31.963Z,90.47
2022-10-17T07:56:35.049Z,92.22
2022-10-17T07:58:38.857Z,93.24
2022-10-17T08:00:42.194Z,93.80
2022-10-17T08:02:45.414Z,92.02
2022-10-17T08:04:48.500Z,90.81
2022-10-17T08:06:56.405Z,91.57
2022-10-17T08:09:05.341Z,91.41
2022-10-17T08:11:10.103Z,89.31
2022-10-17T08:13:13.159Z,90.16
2022-10-17T08:15:16.245Z,91.59
2022-10-17T08:17:19.258Z,88.84
2022-10-17T08:19:22.394Z,89.71
2022-10-17T08:21:25.441Z,87.29
2022-10-17T08:23:28.888Z,89.19
2022-10-17T08:25:33.446Z,88.73
2022-10-17T08:27:36.858Z,89.43
2022-10-17T08:29:40.186Z,90.01
2022-10-17T08:31:47.472Z,89.33
2022-10-17T08:33:51.783Z,89.29
2022-10-17T08:35:54.908Z,89.55
2022-10-17T08:38:01.571Z,91.14
2022-10-17T08:40:05.882Z,91.26
2022-10-17T08:42:39.075Z,90.87
2022-10-17T08:44:50.946Z,90.74
2022-10-17T08:46:57.054Z,90.80
2022-10-17T08:49:03.856Z,91.52
2022-10-17T08:51:13.317Z,90.48
2022-10-17T08:53:20.680Z,90.58
2022-10-17T08:55:30.129Z,88.82
2022-10-17T08:57:35.406Z,88.10
2022-10-17T08:59:38.903Z,88.44
2022-10-17T09:01:46.947Z,88.76
2022-10-17T09:04:06.933Z,88.51
2022-10-17T09:06:17.332Z,86.47
2022-10-17T09:08:31.959Z,86.91
2022-10-17T09:10:44.549Z,86.90
2022-10-17T09:13:06.931Z,86.84
2022-10-17T09:15:33.723Z,87.94
2022-10-17T09:17:50.164Z,88.59
2022-10-17T09:20:00.477Z,88.20
2022-10-17T09:22:07.071Z,87.42
2022-10-17T09:24:16.615Z,86.79
2022-10-17T09:26:20.132Z,85.07
2022-10-17T09:28:27.690Z,84.04
2022-10-17T09:30:45.567Z,84.63
2022-10-17T09:32:49.595Z,84.16
2022-10-17T09:34:54.318Z,84.18
2022-10-17T09:36:59.623Z,84.09
2022-10-17T09:39:06.168Z,84.64
2022-10-17T09:41:44.128Z,85.13
2022-10-17T09:43:44.137Z,85.36
2022-10-17T09:45:56.042Z,84.55
2022-10-17T09:48:03.577Z,84.27
2022-10-17T09:50:22.125Z,84.67
2022-10-17T09:52:30.265Z,84.88
2022-10-17T09:54:43.672Z,84.76
2022-10-17T09:56:59.897Z,85.81
2022-10-17T09:59:04.787Z,85.37
2022-10-17T10:01:21.129Z,83.49
2022-10-17T10:03:28.135Z,83.71
2022-10-17T10:05:31.106Z,84.11
2022-10-17T10:07:36.132Z,84.22
2022-10-17T10:09:40.409Z,83.43
2022-10-17T10:11:47.994Z,83.67
2022-10-17T10:13:51.957Z,83.29
2022-10-17T10:16:14.799Z,81.59
2022-10-17T10:18:33.692Z,82.05
2022-10-17T10:20:38.226Z,81.98
2022-10-17T10:22:41.882Z,83.27
2022-10-17T10:24:44.925Z,81.62
2022-10-17T10:26:49.180Z,81.22
2022-10-17T10:28:58.409Z,80.71
2022-10-17T10:31:07.323Z,79.60
2022-10-17T10:33:12.682Z,79.75
2022-10-17T10:35:22.152Z,79.43
2022-10-17T10:37:26.937Z,78.86
2022-10-17T10:39:46.117Z,78.65
2022-10-17T10:41:49.978Z,77.87
2022-10-17T10:43:53.497Z,78.39
2022-10-17T10:45:56.775Z,76.98
2022-10-17T10:48:02.683Z,77.85
2022-10-17T10:50:18.631Z,77.75
2022-10-17T10:52:32.853Z,76.78
2022-10-17T10:56:44.937Z,76.81
2022-10-17T10:58:54.484Z,76.64
2022-10-17T11:00:58.865Z,76.73
2022-10-17T11:03:12.759Z,76.13
2022-10-17T11:05:21.840Z,75.66
2022-10-17T11:07:28.657Z,76.75
2022-10-17T11:09:45.963Z,75.83
2022-10-17T11:11:52.528Z,76.42
2022-10-17T11:14:05.106Z,76.69
2022-10-17T11:16:18.097Z,77.49
2022-10-17T11:18:26.036Z,77.79
2022-10-17T11:20:35.729Z,77.56
2022-10-17T11:22:42.657Z,79.05
2022-10-17T11:24:56.838Z,78.05
2022-10-17T11:27:02.593Z,78.02
2022-10-17T11:29:08.430Z,77.28
2022-10-17T11:31:13.877Z,77.74
2022-10-17T11:33:21.673Z,77.24
2022-10-17T11:35:28.593Z,76.58
2022-10-17T11:37:33.675Z,77.11
2022-10-17T11:39:42.434Z,76.52
2022-10-17T11:41:49.416Z,75.24
2022-10-17T11:43:55.485Z,75.69
2022-10-17T11:46:01.362Z,73.79
2022-10-17T11:48:07.561Z,75.45
2022-10-17T11:52:56.805Z,74.77
2022-10-17T11:55:04.932Z,72.97
2022-10-17T11:57:27.384Z,73.52
2022-10-17T11:59:50.065Z,73.30
2022-10-17T12:01:57.324Z,74.18
2022-10-17T12:04:09.187Z,74.61
2022-10-17T12:06:18.235Z,74.01
2022-10-17T12:08:30.587Z,73.79
2022-10-17T12:10:41.041Z,74.19
2022-10-17T12:12:44.310Z,73.92
2022-10-17T12:14:47.781Z,74.65
2022-10-17T12:16:51.036Z,74.69
2022-10-17T12:19:32.628Z,73.87
2022-10-17T12:21:55.003Z,72.41
2022-10-17T12:23:59.368Z,73.65
2022-10-17T12:26:05.096Z,73.01
2022-10-17T12:28:14.701Z,73.20
2022-10-17T12:30:20.856Z,72.29
2022-10-17T12:32:23.950Z,72.79
2022-10-17T12:34:26.980Z,72.01
2022-10-17T12:36:50.339Z,71.09
2022-10-17T12:39:31.583Z,70.33
2022-10-17T12:41:55.042Z,69.45
2022-10-17T12:43:58.188Z,70.32
2022-10-17T12:46:01.909Z,70.82
2022-10-17T12:48:04.955Z,70.65
2022-10-17T12:50:53.092Z,70.21
2022-10-17T12:53:04.397Z,69.42
2022-10-17T12:55:14.075Z,69.49
2022-10-17T12:57:22.611Z,69.29
2022-10-17T12:59:27.700Z,70.13
2022-10-17T13:01:32.654Z,69.56
2022-10-17T13:03:43.820Z,69.49
2022-10-17T13:05:49.084Z,70.31
2022-10-17T13:07:52.863Z,69.24
2022-10-17T13:09:56.343Z,69.36
2022-10-17T13:12:01.584Z,68.75
2022-10-17T13:14:12.727Z,69.76
2022-10-17T13:16:29.614Z,68.66
2022-10-17T13:18:32.685Z,69.02
2022-10-17T13:20:35.814Z,69.39
2022-10-17T13:22:45.755Z,68.92
2022-10-17T13:24:49.461Z,68.99
2022-10-17T13:26:52.652Z,69.31
2022-10-17T13:31:32.061Z,70.30
2022-10-17T13:33:38.953Z,69.90
2022-10-17T13:35:59.345Z,69.96
2022-10-17T13:38:07.436Z,68.30
2022-10-17T13:40:44.181Z,69.32
2022-10-17T13:42:41.852Z,70.44
2022-10-17T13:44:47.166Z,70.88
2022-10-17T13:46:50.775Z,70.48
2022-10-17T13:48:53.924Z,70.89
2022-10-17T13:51:02.994Z,70.93
2022-10-17T13:53:16.707Z,70.38
2022-10-17T13:55:22.151Z,70.86
2022-10-17T13:57:27.016Z,71.98
2022-10-17T13:59:35.200Z,71.78
2022-10-17T14:01:39.724Z,72.26
2022-10-17T14:03:48.768Z,72.21
2022-10-17T14:06:12.871Z,71.88
2022-10-17T14:08:22.835Z,72.09
2022-10-17T14:10:28.805Z,72.04
2022-10-17T14:12:32.077Z,72.37
2022-10-17T14:14:51.997Z,73.07
2022-10-17T14:16:59.590Z,73.11
2022-10-17T14:19:02.809Z,72.73
2022-10-17T14:23:31.841Z,73.88
2022-10-17T14:25:37.141Z,74.58
2022-10-17T14:27:57.540Z,74.30
2022-10-17T14:30:02.674Z,74.06
2022-10-17T14:32:09.570Z,73.85
2022-10-17T14:34:22.888Z,73.46
2022-10-17T14:36:38.936Z,73.44
2022-10-17T14:38:46.593Z,74.21
2022-10-17T14:40:52.337Z,72.96
2022-10-17T14:42:57.135Z,73.72
2022-10-17T14:45:06.588Z,74.29
2022-10-17T14:47:42.210Z,73.27
2022-10-17T14:49:44.988Z,71.92
2022-10-17T14:52:21.484Z,72.75
2022-10-17T14:54:26.333Z,72.33
2022-10-17T14:56:36.537Z,73.12
2022-10-17T14:58:39.606Z,74.43
2022-10-17T15:00:42.642Z,74.95
2022-10-17T15:02:47.945Z,73.06
2022-10-17T15:04:51.002Z,73.79
2022-10-17T15:06:55.521Z,73.29
2022-10-17T15:08:58.983Z,74.19
2022-10-17T15:11:02.016Z,73.14
2022-10-17T15:15:29.093Z,74.48
2022-10-17T15:17:32.574Z,74.99
2022-10-17T15:19:37.116Z,75.51
2022-10-17T15:21:44.664Z,75.68
2022-10-17T15:23:50.619Z,74.91
2022-10-17T15:25:53.709Z,74.46
2022-10-17T15:27:57.498Z,75.25
2022-10-17T15:30:00.589Z,76.78
2022-10-17T15:32:03.676Z,76.38
2022-10-17T15:34:06.776Z,76.31
2022-10-17T15:36:28.442Z,78.44
2022-10-17T15:38:31.462Z,78.13
2022-10-17T15:40:34.502Z,78.15
2022-10-17T15:42:37.549Z,76.96
2022-10-17T15:44:44.194Z,76.55
2022-10-17T15:46:47.301Z,76.42
2022-10-17T15:48:50.756Z,77.85
2022-10-17T15:50:53.771Z,78.60
2022-10-17T15:52:58.439Z,78.88
2022-10-17T15:55:04.366Z,77.97
2022-10-17T15:57:17.280Z,77.80
2022-10-17T15:59:31.827Z,78.24
2022-10-17T16:01:35.782Z,77.58
2022-10-17T16:03:39.025Z,77.68
2022-10-17T16:05:42.408Z,78.09
2022-10-17T16:07:46.186Z,79.81
2022-10-17T16:09:50.589Z,80.46
2022-10-17T16:11:53.592Z,80.81
2022-10-17T16:13:59.510Z,81.53
2022-10-17T16:16:02.494Z,83.43
2022-10-17T16:18:07.334Z,83.75
2022-10-17T16:20:13.017Z,85.13
2022-10-17T16:22:21.558Z,84.65
2022-10-17T16:24:24.757Z,85.77
2022-10-17T16:26:29.650Z,86.19
2022-10-17T16:28:32.771Z,86.79
2022-10-17T16:30:42.405Z,87.25
2022-10-17T16:32:45.505Z,86.96
2022-10-17T16:34:48.786Z,87.55
2022-10-17T16:36:51.766Z,88.42
2022-10-17T16:38:55.014Z,87.98
2022-10-17T16:40:58.281Z,88.56
2022-10-17T16:43:02.706Z,88.92
2022-10-17T16:45:06.466Z,89.75
2022-10-17T16:47:09.593Z,90.31
2022-10-17T16:49:12.832Z,89.36
2022-10-17T16:51:18.327Z,89.66
2022-10-17T16:53:21.357Z,90.47
2022-10-17T16:55:24.385Z,90.29
2022-10-17T16:57:27.430Z,91.04
2022-10-17T16:59:31.922Z,90.44
2022-10-17T17:01:34.997Z,91.47
2022-10-17T17:03:38.515Z,90.42
2022-10-17T17:05:41.593Z,91.13
2022-10-17T17:07:44.739Z,91.45
2022-10-17T17:09:47.884Z,91.70
2022-10-17T17:11:51.048Z,93.31
2022-10-17T17:13:56.166Z,93.24
2022-10-17T17:16:11.075Z,92.43
2022-10-17T17:18:14.479Z,93.42
2022-10-17T17:20:17.516Z,93.88
2022-10-17T17:22:20.493Z,92.46
2022-10-17T17:24:23.629Z,93.86
2022-10-17T17:26:27.813Z,94.24
2022-10-17T17:28:31.627Z,94.62
2022-10-17T17:30:34.892Z,94.42
2022-10-17T17:32:39.451Z,94.24
2022-10-17T17:34:42.515Z,94.17
2022-10-17T17:36:45.836Z,94.60
2022-10-17T17:38:49.862Z,93.61
2022-10-17T17:40:53.263Z,94.08
2022-10-17T17:42:56.418Z,93.97
2022-10-17T17:44:59.493Z,95.73
2022-10-17T17:47:02.506Z,94.34
2022-10-17T17:49:06.991Z,95.74
2022-10-17T17:51:11.779Z,95.79
2022-10-17T17:53:16.366Z,95.08
2022-10-17T17:55:19.433Z,96.10
2022-10-17T17:57:22.993Z,95.97
2022-10-17T17:59:26.239Z,94.69
2022-10-17T18:01:30.948Z,95.10
2022-10-17T18:03:33.976Z,96.15
2022-10-17T18:05:41.210Z,95.68
2022-10-17T18:07:44.315Z,95.80
2022-10-17T18:09:48.068Z,95.88
2022-10-17T18:11:51.181Z,96.19
2022-10-17T18:13:55.629Z,96.21
2022-10-17T18:16:00.384Z,95.53
2022-10-17T18:18:03.651Z,95.66
2022-10-17T18:20:08.139Z,96.04
2022-10-17T18:22:12.616Z,96.37
2022-10-17T18:24:15.697Z,96.58
2022-10-17T18:26:18.878Z,96.92
2022-10-17T18:28:22.075Z,97.39
2022-10-17T18:30:27.207Z,97.15
2022-10-17T18:32:32.941Z,97.53
2022-10-17T18:34:36.116Z,97.82
2022-10-17T18:36:39.218Z,97.31
2022-10-17T18:38:44.198Z,98.04
2022-10-17T18:40:50.017Z,97.23
2022-10-17T18:42:54.057Z,97.83
2022-10-17T18:44:57.115Z,98.24
2022-10-17T18:47:03.832Z,97.91
2022-10-17T18:49:07.778Z,98.37
2022-10-17T18:51:11.556Z,97.72
2022-10-17T18:53:14.930Z,98.08
2022-10-17T18:55:20.531Z,98.18
2022-10-17T18:57:26.136Z,97.91
2022-10-17T18:59:29.695Z,97.11
2022-10-17T19:01:32.996Z,98.24
2022-10-17T19:03:36.344Z,97.63
2022-10-17T19:05:39.832Z,98.54
2022-10-17T19:07:42.865Z,98.58
2022-10-17T19:09:45.963Z,98.22
2022-10-17T19:11:50.540Z,98.78
2022-10-17T19:13:54.224Z,98.32
2022-10-17T19:15:57.394Z,98.92
2022-10-17T19:18:00.455Z,98.11
2022-10-17T19:20:03.707Z,98.12
2022-10-17T19:22:06.872Z,97.64
2022-10-17T19:24:13.829Z,97.33
2022-10-17T19:26:17.025Z,97.06
2022-10-17T19:28:21.503Z,97.80
2022-10-17T19:30:24.998Z,98.29
2022-10-17T19:32:28.229Z,98.84
2022-10-17T19:34:31.634Z,99.29
2022-10-17T19:36:36.171Z,99.45
2022-10-17T19:38:39.353Z,98.66
2022-10-17T19:40:42.677Z,98.97
2022-10-17T19:42:46.015Z,100.00
2022-10-17T19:44:50.428Z,99.72
2022-10-17T19:46:53.703Z,99.37
2022-10-17T19:48:57.444Z,98.94
2022-10-17T19:51:00.530Z,99.87
2022-10-17T19:53:03.665Z,99.53
2022-10-17T19:55:09.095Z,99.45
2022-10-17T19:57:12.323Z,99.66
2022-10-17T19:59:16.817Z,98.60
2022-10-17T20:01:23.956Z,98.39
2022-10-17T20:03:29.016Z,98.85
2022-10-17T20:05:32.146Z,98.85
2022-10-17T20:07:35.210Z,98.82
2022-10-17T20:09:38.711Z,99.10
2022-10-17T20:11:42.002Z,99.69
2022-10-17T20:13:45.862Z,99.56
2022-10-17T20:15:57.776Z,99.40
2022-10-17T20:18:02.245Z,99.34
2022-10-17T20:20:08.696Z,98.97
2022-10-17T20:22:12.193Z,98.92
2022-10-17T20:24:17.580Z,99.85
2022-10-17T20:26:37.650Z,98.74
2022-10-17T20:28:41.918Z,99.30
2022-10-17T20:30:46.422Z,100.00
2022-10-17T20:32:55.042Z,99.92
2022-10-17T20:34:59.862Z,99.30
2022-10-17T20:37:02.970Z,99.79
2022-10-17T20:39:07.216Z,99.55
2022-10-17T20:41:11.345Z,99.07
2022-10-17T20:43:14.852Z,99.31
2022-10-17T20:45:18.110Z,99.02
2022-10-17T20:47:40.012Z,98.94
2022-10-17T20:49:44.769Z,98.92
2022-10-17T20:51:49.413Z,98.85
2022-10-17T20:53:52.654Z,98.38
2022-10-17T20:56:02.949Z,98.80
2022-10-17T20:58:06.238Z,98.59
2022-10-17T21:00:10.541Z,99.15
2022-10-17T21:02:14.484Z,99.33
2022-10-17T21:06:40.612Z,98.59
2022-10-17T21:08:45.476Z,98.32
2022-10-17T21:10:48.671Z,99.41
2022-10-17T21:12:54.329Z,98.35
2022-10-17T21:14:57.780Z,99.91
2022-10-17T21:17:04.751Z,98.95
2022-10-17T21:19:08.471Z,99.34
2022-10-17T21:21:13.613Z,98.99
2022-10-17T21:23:16.611Z,98.28
2022-10-17T21:25:21.180Z,99.76
2022-10-17T21:27:24.312Z,98.84
2022-10-17T21:29:27.667Z,99.33
2022-10-17T21:31:31.142Z,99.72
2022-10-17T21:33:34.266Z,99.16
2022-10-17T21:35:37.341Z,99.77
2022-10-17T21:37:40.411Z,98.93
2022-10-17T21:39:43.490Z,99.86
2022-10-17T21:41:47.848Z,98.99
2022-10-17T21:43:54.201Z,99.64
2022-10-17T21:45:57.171Z,100.00
2022-10-17T21:48:12.475Z,99.96
2022-10-17T21:50:16.295Z,98.89
2022-10-17T21:52:19.414Z,99.14
2022-10-17T21:54:23.938Z,99.41
2022-10-17T21:56:30.593Z,100.00
2022-10-17T21:58:35.218Z,99.78
2022-10-17T22:00:38.294Z,100.00
2022-10-17T22:02:41.329Z,98.18
2022-10-17T22:04:45.414Z,100.00
2022-10-17T22:06:51.440Z,98.34
2022-10-17T22:08:55.048Z,100.00
2022-10-17T22:10:58.728Z,99.54
2022-10-17T22:13:01.739Z,99.92
2022-10-17T22:15:07.388Z,100.00
2022-10-17T22:17:10.427Z,100.00
2022-10-17T22:19:14.858Z,99.65
2022-10-17T22:21:19.401Z,99.73
2022-10-17T22:23:22.423Z,99.51
2022-10-17T22:25:25.649Z,99.86
2022-10-17T22:27:28.952Z,99.67
2022-10-17T22:29:32.320Z,98.73
2022-10-17T22:31:37.900Z,99.77
2022-10-17T22:33:41.690Z,99.02
2022-10-17T22:35:44.875Z,100.00
2022-10-17T22:37:47.923Z,99.79
2022-10-17T22:39:50.951Z,100.00
2022-10-17T22:41:53.995Z,99.28
2022-10-17T22:43:57.184Z,99.13
2022-10-17T22:46:01.788Z,99.44
2022-10-17T22:48:07.018Z,100.00
2022-10-17T22:50:10.591Z,100.00
2022-10-17T22:52:13.670Z,99.24
2022-10-17T22:54:17.072Z,98.25
2022-10-17T22:56:21.945Z,99.17
2022-10-17T22:58:25.860Z,100.00
2022-10-17T23:02:32.607Z,100.00
2022-10-17T23:04:37.239Z,100.00
2022-10-17T23:06:40.236Z,99.37
2022-10-17T23:08:44.325Z,100.00
2022-10-17T23:10:48.050Z,100.00
2022-10-17T23:12:51.307Z,99.69
2022-10-17T23:14:54.315Z,100.00
2022-10-17T23:16:57.426Z,100.00
2022-10-17T23:19:00.744Z,99.63
2022-10-17T23:21:05.424Z,100.00
2022-10-17T23:23:08.580Z,98.86
2022-10-17T23:25:11.596Z,100.00
2022-10-17T23:27:14.711Z,99.05
2022-10-17T23:29:17.753Z,100.00
2022-10-17T23:31:22.060Z,100.00
2022-10-17T23:33:25.179Z,100.00
2022-10-17T23:35:28.741Z,100.00
2022-10-17T23:37:33.367Z,98.75
2022-10-17T23:39:36.514Z,99.94
2022-10-17T23:41:39.940Z,100.00
2022-10-17T23:43:43.651Z,99.19
2022-10-17T23:45:46.662Z,100.00
2022-10-17T23:47:49.681Z,100.00
2022-10-17T23:49:52.670Z,100.00
2022-10-17T23:51:55.646Z,100.00
2022-10-17T23:53:59.975Z,99.05
2022-10-17T23:56:03.027Z,100.00
2022-10-17T23:58:06.058Z,100.00
